Time;durP1;ratioP1;P1;durP2;ratioP2;P2;SDS_P1;SDS_P2;PMS_P1;PMS_P2;Temp;Humidity;BMP_temperature;BMP_pressure;BME280_temperature;BME280_humidity;BME280_pressure;Samples;Min_cycle;Max_cycle;Signal;HPM_P1;HPM_P2
2023/08/22 00:00:28;;;;;;;4.50;3.70;;;22.30;99.90;;;;;;5026028;28;20567;-69
2023/08/22 00:02:55;;;;;;;4.63;4.00;;;22.20;99.90;;;;;;5025784;28;20476;-69
2023/08/22 00:05:22;;;;;;;5.90;3.40;;;22.20;99.90;;;;;;5027886;28;20476;-70
2023/08/22 00:07:51;;;;;;;6.17;3.00;;;22.20;99.90;;;;;;5025313;28;20832;-71
2023/08/22 00:10:19;;;;;;;5.10;3.20;;;22.20;99.90;;;;;;5020961;28;20476;-71
2023/08/22 00:12:46;;;;;;;8.13;2.80;;;22.10;99.90;;;;;;5016659;28;20473;-69
2023/08/22 00:15:14;;;;;;;4.13;3.50;;;22.10;99.90;;;;;;5026905;28;21033;-71
2023/08/22 00:17:41;;;;;;;21.50;8.23;;;22.00;99.90;;;;;;5015024;28;20502;-69
2023/08/22 00:20:10;;;;;;;58.27;23.47;;;22.00;99.90;;;;;;5026136;28;21075;-71
2023/08/22 00:22:37;;;;;;;9.30;4.50;;;22.00;99.90;;;;;;5026863;28;20577;-71
2023/08/22 00:25:07;;;;;;;201.23;44.70;;;21.90;99.90;;;;;;5027474;28;20717;-71
2023/08/22 00:27:34;;;;;;;15.23;4.00;;;21.80;99.90;;;;;;5026602;28;20581;-71
2023/08/22 00:30:01;;;;;;;106.53;34.03;;;21.70;99.90;;;;;;5027599;28;20478;-70
2023/08/22 00:32:28;;;;;;;22.73;9.40;;;21.70;99.90;;;;;;5029854;28;21079;-70
2023/08/22 00:34:55;;;;;;;14.60;5.60;;;21.70;99.90;;;;;;5031343;28;20568;-72
2023/08/22 00:37:22;;;;;;;10.90;4.00;;;21.70;99.90;;;;;;5028996;28;20494;-67
2023/08/22 00:39:49;;;;;;;4.47;3.43;;;21.70;99.90;;;;;;5026830;28;20464;-67
2023/08/22 00:42:17;;;;;;;5.20;3.47;;;21.60;99.90;;;;;;5029126;28;20487;-65
2023/08/22 00:44:44;;;;;;;6.83;3.47;;;21.40;99.90;;;;;;5030178;28;20587;-66
2023/08/22 00:47:11;;;;;;;7.93;4.00;;;21.30;99.90;;;;;;5018748;28;20582;-71
2023/08/22 00:49:39;;;;;;;5.27;3.50;;;21.30;99.90;;;;;;5028793;28;20472;-68
2023/08/22 00:52:07;;;;;;;7.70;3.53;;;21.40;99.90;;;;;;5026291;28;20515;-70
2023/08/22 00:54:35;;;;;;;4.60;3.53;;;21.40;99.90;;;;;;5029611;28;20902;-68
2023/08/22 00:57:03;;;;;;;8.50;4.00;;;21.40;99.90;;;;;;5030443;28;20848;-69
2023/08/22 00:59:32;;;;;;;4.50;3.87;;;21.50;99.90;;;;;;5030751;28;20925;-69
2023/08/22 01:01:59;;;;;;;5.17;4.43;;;21.50;99.90;;;;;;5029578;28;21294;-70
2023/08/22 01:04:26;;;;;;;5.70;4.13;;;21.40;99.90;;;;;;5030222;28;20465;-71
2023/08/22 01:07:02;;;;;;;5.80;3.90;;;21.50;99.90;;;;;;5031618;28;20495;-69
2023/08/22 01:09:32;;;;;;;7.27;3.80;;;21.40;99.90;;;;;;5027651;28;20863;-69
2023/08/22 01:12:04;;;;;;;4.63;3.60;;;21.40;99.90;;;;;;5026894;28;21180;-71
2023/08/22 01:14:39;;;;;;;4.50;3.70;;;21.40;99.90;;;;;;5026374;28;20962;-69
2023/08/22 01:17:07;;;;;;;12.97;3.93;;;21.40;99.90;;;;;;5026141;28;21992;-68
2023/08/22 01:19:35;;;;;;;6.00;3.77;;;21.40;99.90;;;;;;5027616;28;21139;-71
2023/08/22 01:22:03;;;;;;;11.10;5.60;;;21.40;99.90;;;;;;5031681;28;20605;-68
2023/08/22 01:24:30;;;;;;;5.87;4.20;;;21.40;99.90;;;;;;5032481;28;20479;-70
2023/08/22 01:26:57;;;;;;;5.57;3.90;;;;;;;;;;5029906;28;20467;-69
2023/08/22 01:29:32;;;;;;;3.53;3.23;;;21.30;99.90;;;;;;5032805;28;20948;-70
2023/08/22 01:32:06;;;;;;;4.20;3.80;;;21.30;99.90;;;;;;5029107;28;20475;-70
2023/08/22 01:34:37;;;;;;;11.07;3.80;;;21.20;99.90;;;;;;5032607;28;20505;-69
2023/08/22 01:37:08;;;;;;;10.97;3.50;;;21.10;99.90;;;;;;5030702;28;20581;-70
2023/08/22 01:39:36;;;;;;;3.20;2.90;;;21.10;99.90;;;;;;5033141;28;20478;-71
2023/08/22 01:42:04;;;;;;;10.30;4.20;;;21.00;99.90;;;;;;5031974;28;20483;-68
2023/08/22 01:44:31;;;;;;;6.40;3.40;;;21.00;99.90;;;;;;5032549;28;20561;-70
2023/08/22 01:46:58;;;;;;;12.23;4.00;;;20.90;99.90;;;;;;5022188;28;20490;-69
2023/08/22 01:49:25;;;;;;;3.77;3.30;;;21.00;99.90;;;;;;5043542;28;20479;-70
2023/08/22 01:51:51;;;;;;;9.03;3.40;;;21.00;99.90;;;;;;5031394;28;20479;-70
2023/08/22 01:54:20;;;;;;;12.00;3.73;;;21.00;99.90;;;;;;5032940;28;20479;-67
2023/08/22 01:56:47;;;;;;;10.97;3.67;;;21.00;99.90;;;;;;5036413;28;20472;-69
2023/08/22 01:59:14;;;;;;;5.33;3.40;;;21.00;99.90;;;;;;5031698;28;20483;-69
2023/08/22 02:01:40;;;;;;;3.87;3.27;;;20.90;99.90;;;;;;5028349;28;20477;-70
2023/08/22 02:04:07;;;;;;;5.53;2.90;;;20.80;99.90;;;;;;5022270;28;20454;-69
2023/08/22 02:06:34;;;;;;;6.23;3.53;;;20.70;99.90;;;;;;5046462;28;20487;-66
2023/08/22 02:09:01;;;;;;;9.20;2.77;;;20.80;99.90;;;;;;5028875;28;20561;-67
2023/08/22 02:11:30;;;;;;;3.90;2.87;;;20.70;99.90;;;;;;5030898;28;20483;-66
2023/08/22 02:13:57;;;;;;;6.37;2.77;;;20.70;99.90;;;;;;5027367;28;20482;-65
2023/08/22 02:16:24;;;;;;;4.83;3.60;;;20.70;99.90;;;;;;5029857;28;20478;-66
2023/08/22 02:18:51;;;;;;;4.70;3.57;;;20.70;99.90;;;;;;5030463;28;20478;-66
2023/08/22 02:21:18;;;;;;;5.50;3.97;;;20.50;99.90;;;;;;5028895;28;20581;-66
2023/08/22 02:23:45;;;;;;;5.90;3.90;;;20.50;99.90;;;;;;5028819;28;21227;-67
2023/08/22 02:26:12;;;;;;;6.97;3.33;;;20.50;99.90;;;;;;5029747;28;20478;-67
2023/08/22 02:28:40;;;;;;;3.60;3.17;;;20.50;99.90;;;;;;5027283;28;20482;-66
2023/08/22 02:31:07;;;;;;;9.10;2.83;;;20.50;99.90;;;;;;5026414;28;20506;-66
2023/08/22 02:33:34;;;;;;;2.20;1.97;;;20.40;99.90;;;;;;5033028;28;20561;-66
2023/08/22 02:36:01;;;;;;;5.90;3.20;;;20.40;99.90;;;;;;5022219;28;21059;-66
2023/08/22 02:38:28;;;;;;;4.00;3.57;;;20.40;99.90;;;;;;5028144;28;21170;-67
2023/08/22 02:40:55;;;;;;;3.60;2.90;;;20.40;99.90;;;;;;5029245;28;20489;-68
2023/08/22 02:43:22;;;;;;;4.27;2.80;;;20.40;99.90;;;;;;5028845;28;20929;-67
2023/08/22 02:45:50;;;;;;;10.60;3.63;;;20.40;99.90;;;;;;5030889;28;21020;-66
2023/08/22 02:48:17;;;;;;;13.83;4.03;;;20.40;99.90;;;;;;5029410;28;20499;-66
2023/08/22 02:50:44;;;;;;;4.73;3.53;;;20.40;99.90;;;;;;5029889;28;20484;-66
2023/08/22 02:53:14;;;;;;;3.60;3.00;;;20.40;99.90;;;;;;5029276;28;20510;-66
2023/08/22 02:55:41;;;;;;;5.13;3.07;;;20.30;99.90;;;;;;5030172;28;20478;-65
2023/08/22 02:58:08;;;;;;;4.23;3.83;;;20.20;99.90;;;;;;5030182;28;20906;-66
2023/08/22 03:00:36;;;;;;;4.63;3.63;;;20.10;99.90;;;;;;5029517;28;20751;-65
2023/08/22 03:03:05;;;;;;;4.30;3.00;;;20.00;99.90;;;;;;5028651;28;21035;-66
2023/08/22 03:05:32;;;;;;;4.50;3.00;;;20.00;99.90;;;;;;5029698;28;20483;-66
2023/08/22 03:07:59;;;;;;;5.13;2.77;;;20.00;99.90;;;;;;5027467;28;21019;-66
2023/08/22 03:10:26;;;;;;;5.10;3.17;;;19.90;99.90;;;;;;5036091;28;20471;-67
2023/08/22 03:12:53;;;;;;;4.70;4.20;;;19.90;99.90;;;;;;5030029;28;20469;-66
2023/08/22 03:15:20;;;;;;;3.63;3.20;;;19.90;99.90;;;;;;5029047;28;20477;-66
2023/08/22 03:17:47;;;;;;;3.30;3.00;;;20.00;99.90;;;;;;5032744;28;20482;-67
2023/08/22 03:20:16;;;;;;;3.70;3.17;;;;;;;;;;5031068;28;20499;-66
2023/08/22 03:22:43;;;;;;;3.60;3.20;;;20.00;99.90;;;;;;5029221;28;20845;-66
2023/08/22 03:25:10;;;;;;;3.77;3.30;;;20.00;99.90;;;;;;5028106;28;20660;-66
2023/08/22 03:27:39;;;;;;;4.83;3.10;;;20.00;99.90;;;;;;5030406;28;20472;-66
2023/08/22 03:30:07;;;;;;;6.53;3.20;;;20.00;99.90;;;;;;5028072;28;20549;-66
2023/08/22 03:32:34;;;;;;;6.90;3.70;;;19.90;99.90;;;;;;5027232;28;20599;-66
2023/08/22 03:35:01;;;;;;;7.70;3.53;;;19.90;99.90;;;;;;5028734;28;21006;-66
2023/08/22 03:37:29;;;;;;;3.90;3.37;;;19.90;99.90;;;;;;5035435;28;20555;-66
2023/08/22 03:39:56;;;;;;;3.10;2.53;;;20.00;99.90;;;;;;5027500;28;20478;-67
2023/08/22 03:42:23;;;;;;;8.73;3.63;;;20.00;99.90;;;;;;5028270;28;20906;-66
2023/08/22 03:44:51;;;;;;;3.47;3.17;;;20.00;99.90;;;;;;5028114;28;20697;-66
2023/08/22 03:47:17;;;;;;;4.10;3.47;;;20.00;99.90;;;;;;5027921;28;20480;-66
2023/08/22 03:49:44;;;;;;;3.83;3.33;;;20.00;99.90;;;;;;5027139;28;20450;-68
2023/08/22 03:52:11;;;;;;;4.60;3.60;;;20.00;99.90;;;;;;5028176;28;20486;-66
2023/08/22 03:54:40;;;;;;;5.80;3.13;;;20.00;99.90;;;;;;5029494;28;20783;-66
2023/08/22 03:57:07;;;;;;;4.97;3.00;;;20.00;99.90;;;;;;5028314;28;20475;-66
2023/08/22 03:59:33;;;;;;;7.63;3.27;;;20.00;99.90;;;;;;5028916;28;20494;-66
2023/08/22 04:02:00;;;;;;;3.13;2.83;;;19.90;99.90;;;;;;5026930;28;20999;-66
2023/08/22 04:04:27;;;;;;;3.13;2.50;;;19.90;99.90;;;;;;5029355;28;20558;-65
2023/08/22 04:06:54;;;;;;;5.80;3.27;;;19.80;99.90;;;;;;5029087;28;20737;-65
2023/08/22 04:09:21;;;;;;;7.03;3.13;;;19.80;99.90;;;;;;5027605;28;20998;-66
2023/08/22 04:11:49;;;;;;;5.23;3.67;;;19.70;99.90;;;;;;5028714;28;20497;-66
2023/08/22 04:14:16;;;;;;;8.13;2.97;;;19.60;99.90;;;;;;5026088;28;20796;-66
2023/08/22 04:16:43;;;;;;;5.67;3.93;;;19.50;99.90;;;;;;5040816;28;20863;-65
2023/08/22 04:19:11;;;;;;;12.50;4.63;;;19.40;99.90;;;;;;5028648;28;20567;-66
2023/08/22 04:21:38;;;;;;;12.93;4.80;;;19.30;99.90;;;;;;5030710;28;20484;-66
2023/08/22 04:24:05;;;;;;;8.23;5.47;;;19.30;99.90;;;;;;5027126;28;20475;-66
2023/08/22 04:26:32;;;;;;;3.87;3.43;;;19.40;99.90;;;;;;5024147;28;20886;-66
2023/08/22 04:29:00;;;;;;;3.40;3.00;;;19.50;99.90;;;;;;5033718;28;20487;-68
2023/08/22 04:31:27;;;;;;;9.20;3.40;;;19.50;99.90;;;;;;5025676;28;20925;-69
2023/08/22 04:33:54;;;;;;;7.60;3.10;;;19.50;99.90;;;;;;5026755;28;20476;-68
2023/08/22 04:36:21;;;;;;;3.27;2.90;;;19.40;99.90;;;;;;5028476;28;20475;-69
2023/08/22 04:38:49;;;;;;;4.07;3.57;;;19.30;99.90;;;;;;5025339;28;20562;-69
2023/08/22 04:41:16;;;;;;;11.63;3.53;;;19.40;99.90;;;;;;5027212;28;20617;-69
2023/08/22 04:43:43;;;;;;;7.33;3.57;;;19.40;99.90;;;;;;5029054;28;20476;-68
2023/08/22 04:46:13;;;;;;;5.70;3.70;;;19.40;99.90;;;;;;5028561;28;20474;-68
2023/08/22 04:48:39;;;;;;;3.13;2.83;;;19.30;99.90;;;;;;5030957;28;20489;-69
2023/08/22 04:51:06;;;;;;;14.33;3.93;;;19.40;99.90;;;;;;5030366;28;20555;-68
2023/08/22 04:53:33;;;;;;;7.87;3.00;;;19.40;99.90;;;;;;5028412;28;20584;-69
2023/08/22 04:56:00;;;;;;;4.00;3.50;;;19.40;99.90;;;;;;5031406;28;20467;-68
2023/08/22 04:58:27;;;;;;;4.03;3.63;;;19.50;99.90;;;;;;5031956;28;20464;-68
2023/08/22 05:00:54;;;;;;;4.27;3.50;;;;;;;;;;5031544;28;20478;-69
2023/08/22 05:03:22;;;;;;;2.97;2.70;;;19.50;99.90;;;;;;5032015;28;20486;-70
2023/08/22 05:05:49;;;;;;;3.33;3.03;;;19.60;99.90;;;;;;5032716;28;20486;-68
2023/08/22 05:08:16;;;;;;;5.33;3.27;;;19.60;99.90;;;;;;5032166;28;20761;-68
2023/08/22 05:10:44;;;;;;;6.90;4.03;;;19.70;99.90;;;;;;5031852;28;20854;-68
2023/08/22 05:13:11;;;;;;;4.30;3.70;;;19.70;99.90;;;;;;5030464;28;20918;-69
2023/08/22 05:15:38;;;;;;;5.57;4.47;;;19.80;99.90;;;;;;5032961;28;20483;-70
2023/08/22 05:18:05;;;;;;;8.50;4.07;;;19.80;99.90;;;;;;5030425;28;20571;-70
2023/08/22 05:20:33;;;;;;;5.83;3.70;;;19.90;99.90;;;;;;5032492;28;20489;-69
2023/08/22 05:23:01;;;;;;;5.27;3.73;;;;;;;;;;5031149;28;20494;-69
2023/08/22 05:25:28;;;;;;;6.30;4.00;;;19.90;99.90;;;;;;5031496;28;20799;-68
2023/08/22 05:27:54;;;;;;;5.20;4.50;;;20.00;99.90;;;;;;5037607;28;20498;-68
2023/08/22 05:30:22;;;;;;;4.60;3.73;;;20.00;99.90;;;;;;5031767;28;20558;-68
2023/08/22 05:32:49;;;;;;;10.70;3.70;;;20.00;99.90;;;;;;5031107;28;20481;-67
2023/08/22 05:35:16;;;;;;;5.10;4.07;;;20.10;99.90;;;;;;5030673;28;20476;-69
2023/08/22 05:37:44;;;;;;;3.77;3.20;;;20.10;99.90;;;;;;5032390;28;20484;-69
2023/08/22 05:40:12;;;;;;;4.40;3.03;;;20.10;99.90;;;;;;5030335;28;21280;-68
2023/08/22 05:42:39;;;;;;;6.73;3.73;;;20.20;99.90;;;;;;5021426;28;20478;-68
2023/08/22 05:45:07;;;;;;;3.90;3.23;;;20.10;99.90;;;;;;5043616;28;20579;-68
2023/08/22 05:47:34;;;;;;;6.30;4.53;;;20.10;99.90;;;;;;5030434;28;20475;-69
2023/08/22 05:50:01;;;;;;;6.30;4.37;;;20.10;99.90;;;;;;5031009;28;20840;-68
2023/08/22 05:52:28;;;;;;;8.43;4.40;;;20.10;99.90;;;;;;5031875;28;20498;-67
2023/08/22 05:54:56;;;;;;;5.07;4.57;;;20.10;99.90;;;;;;5030075;28;20522;-68
2023/08/22 05:57:23;;;;;;;12.83;5.50;;;20.20;99.90;;;;;;5027320;28;21024;-70
2023/08/22 05:59:50;;;;;;;4.60;4.13;;;20.20;99.90;;;;;;5037254;28;20485;-69
2023/08/22 06:02:17;;;;;;;12.07;5.60;;;20.30;99.90;;;;;;5032603;28;21050;-68
2023/08/22 06:04:46;;;;;;;6.83;5.80;;;20.30;99.90;;;;;;5030723;28;20493;-67
2023/08/22 06:07:13;;;;;;;23.13;5.87;;;20.40;99.90;;;;;;5030601;28;20479;-70
2023/08/22 06:09:40;;;;;;;6.53;5.80;;;20.50;99.90;;;;;;5029187;28;20482;-68
2023/08/22 06:12:09;;;;;;;9.93;6.10;;;20.70;99.90;;;;;;5032805;28;20703;-68
2023/08/22 06:14:36;;;;;;;8.33;5.77;;;20.90;99.90;;;;;;5031028;28;20484;-69
2023/08/22 06:17:03;;;;;;;12.33;5.80;;;20.90;99.90;;;;;;5025527;28;20487;-69
2023/08/22 06:19:30;;;;;;;5.73;4.80;;;21.00;99.90;;;;;;5040572;28;20484;-70
2023/08/22 06:21:57;;;;;;;11.77;6.40;;;21.10;99.90;;;;;;5029863;28;20473;-67
2023/08/22 06:24:24;;;;;;;10.97;6.80;;;21.20;99.90;;;;;;5030666;28;20474;-70
2023/08/22 06:26:51;;;;;;;6.73;6.07;;;21.40;99.90;;;;;;5030202;28;20941;-68
2023/08/22 06:29:19;;;;;;;6.57;5.60;;;21.50;99.90;;;;;;5027119;28;20883;-69
2023/08/22 06:31:46;;;;;;;9.17;6.80;;;21.60;99.90;;;;;;5030603;28;20540;-68
2023/08/22 06:34:13;;;;;;;9.90;6.57;;;21.80;99.90;;;;;;5022757;28;20574;-68
2023/08/22 06:36:40;;;;;;;6.47;5.40;;;21.80;99.90;;;;;;5028755;28;20479;-70
2023/08/22 06:39:07;;;;;;;8.17;6.00;;;22.00;99.90;;;;;;5028832;28;20484;-68
2023/08/22 06:41:35;;;;;;;6.27;5.60;;;22.20;99.90;;;;;;5029729;28;21038;-69
2023/08/22 06:44:07;;;;;;;7.53;5.10;;;22.50;99.90;;;;;;5029055;28;20880;-69
2023/08/22 06:46:36;;;;;;;10.93;5.80;;;22.50;99.90;;;;;;5028827;28;20991;-69
2023/08/22 06:49:03;;;;;;;7.93;5.60;;;22.70;99.90;;;;;;5026447;28;20846;-69
2023/08/22 06:51:30;;;;;;;7.10;4.90;;;22.90;99.90;;;;;;5017979;28;20471;-71
2023/08/22 06:53:57;;;;;;;7.40;4.77;;;23.20;99.90;;;;;;5028328;28;20533;-67
2023/08/22 06:56:24;;;;;;;7.43;5.73;;;23.30;99.90;;;;;;5029667;28;20537;-69
2023/08/22 06:58:51;;;;;;;4.60;4.07;;;23.60;99.90;;;;;;5028813;28;20472;-69
2023/08/22 07:01:18;;;;;;;4.90;4.40;;;24.10;99.90;;;;;;5027931;28;20484;-69
2023/08/22 07:03:48;;;;;;;5.07;4.27;;;;;;;;;;5028329;28;20484;-69
2023/08/22 07:06:14;;;;;;;8.23;4.03;;;24.80;99.90;;;;;;5018487;28;21391;-70
2023/08/22 07:08:41;;;;;;;5.43;3.93;;;25.50;99.90;;;;;;5041914;28;20484;-70
2023/08/22 07:11:08;;;;;;;5.53;3.97;;;26.00;99.90;;;;;;5029513;28;21001;-70
2023/08/22 07:13:36;;;;;;;5.73;5.10;;;26.60;99.90;;;;;;5030100;28;20468;-69
2023/08/22 07:16:04;;;;;;;4.30;3.90;;;26.60;99.90;;;;;;5029532;28;20559;-70
2023/08/22 07:18:31;;;;;;;6.70;3.60;;;27.00;99.90;;;;;;5029492;28;20569;-69
2023/08/22 07:21:03;;;;;;;6.93;3.80;;;27.20;99.90;;;;;;5027811;28;20492;-67
2023/08/22 07:23:30;;;;;;;9.70;4.67;;;27.40;99.90;;;;;;5027899;28;20469;-69
2023/08/22 07:25:57;;;;;;;6.77;4.60;;;27.50;99.90;;;;;;5032377;28;20483;-67
2023/08/22 07:28:24;;;;;;;5.40;3.87;;;27.60;99.90;;;;;;5029623;28;20480;-68
2023/08/22 07:30:51;;;;;;;21.27;6.60;;;27.80;99.90;;;;;;5032831;28;20538;-67
2023/08/22 07:33:18;;;;;;;5.13;3.53;;;27.80;99.70;;;;;;5027533;28;20832;-69
2023/08/22 07:35:46;;;;;;;5.20;3.67;;;27.80;99.90;;;;;;5022733;28;20983;-67
2023/08/22 07:38:14;;;;;;;4.60;4.20;;;27.80;98.70;;;;;;5036156;28;20488;-68
2023/08/22 07:40:42;;;;;;;5.73;3.17;;;27.60;97.30;;;;;;5028697;28;20828;-67
2023/08/22 07:43:09;;;;;;;12.83;3.80;;;27.40;98.20;;;;;;5027063;28;20531;-68
2023/08/22 07:45:36;;;;;;;6.03;3.67;;;27.40;98.00;;;;;;5029898;28;20464;-69
2023/08/22 07:48:03;;;;;;;10.00;4.03;;;27.30;97.20;;;;;;5029389;28;20446;-68
2023/08/22 07:50:30;;;;;;;4.20;2.80;;;27.20;97.90;;;;;;5028416;28;20459;-69
2023/08/22 07:52:58;;;;;;;9.10;3.00;;;27.10;97.50;;;;;;5025760;28;20673;-68
2023/08/22 07:55:26;;;;;;;6.83;2.63;;;27.20;98.10;;;;;;5023934;28;20580;-70
2023/08/22 07:57:54;;;;;;;4.50;3.20;;;27.30;96.80;;;;;;5026165;28;20462;-68
2023/08/22 08:00:22;;;;;;;3.90;3.10;;;27.20;96.20;;;;;;5024957;28;20533;-70
2023/08/22 08:02:50;;;;;;;3.53;3.20;;;;;;;;;;5020423;28;20935;-69
2023/08/22 08:05:17;;;;;;;6.30;3.07;;;27.60;97.50;;;;;;5026820;28;20461;-67
2023/08/22 08:07:43;;;;;;;6.40;2.87;;;27.60;96.60;;;;;;5028345;28;20475;-69
2023/08/22 08:10:11;;;;;;;4.93;3.13;;;27.80;96.60;;;;;;5025307;28;20476;-68
2023/08/22 08:12:39;;;;;;;4.70;2.40;;;27.80;94.70;;;;;;5027299;28;20449;-68
2023/08/22 08:15:07;;;;;;;4.10;2.60;;;27.90;94.20;;;;;;5013980;28;20476;-70
2023/08/22 08:17:34;;;;;;;5.90;2.33;;;27.90;93.90;;;;;;5027801;28;20459;-69
2023/08/22 08:20:02;;;;;;;4.13;2.90;;;28.00;93.80;;;;;;5021764;28;20791;-69
2023/08/22 08:22:29;;;;;;;2.50;2.10;;;28.10;94.30;;;;;;5035644;28;20480;-70
2023/08/22 08:24:56;;;;;;;3.97;2.10;;;28.10;92.50;;;;;;5024569;28;20595;-69
2023/08/22 08:27:23;;;;;;;3.30;2.03;;;28.20;92.90;;;;;;5027281;28;20894;-71
2023/08/22 08:29:52;;;;;;;2.53;2.13;;;28.20;92.20;;;;;;5030432;28;20442;-70
2023/08/22 08:32:18;;;;;;;3.90;1.70;;;28.20;94.50;;;;;;5031154;28;20888;-70
2023/08/22 08:34:45;;;;;;;3.00;1.83;;;28.20;93.10;;;;;;5032333;28;20885;-68
2023/08/22 08:37:12;;;;;;;6.83;1.67;;;28.20;92.60;;;;;;5029489;28;20533;-67
2023/08/22 08:39:39;;;;;;;2.13;1.60;;;28.20;92.50;;;;;;5033651;28;20867;-71
2023/08/22 08:42:12;;;;;;;2.47;1.87;;;28.30;91.40;;;;;;5032014;28;20482;-69
2023/08/22 08:44:39;;;;;;;3.23;1.90;;;28.40;92.80;;;;;;5032426;28;20906;-70
2023/08/22 08:47:09;;;;;;;5.67;1.87;;;28.40;90.00;;;;;;5032233;28;20486;-71
2023/08/22 08:49:36;;;;;;;4.77;1.80;;;28.30;91.60;;;;;;5032194;28;20767;-68
2023/08/22 08:52:04;;;;;;;4.03;2.10;;;28.50;91.90;;;;;;5031503;28;20476;-71
2023/08/22 08:54:32;;;;;;;5.90;2.23;;;28.50;92.30;;;;;;5030557;28;20569;-71
2023/08/22 08:56:59;;;;;;;4.63;1.87;;;28.50;90.70;;;;;;5028696;28;20902;-69
2023/08/22 08:59:27;;;;;;;3.03;2.00;;;28.60;90.30;;;;;;5029161;28;21185;-71
2023/08/22 09:01:54;;;;;;;3.70;2.27;;;28.60;90.20;;;;;;5030561;28;20449;-69
2023/08/22 09:04:23;;;;;;;5.07;1.97;;;28.60;90.80;;;;;;5028642;28;20558;-70
2023/08/22 09:06:50;;;;;;;3.30;2.40;;;28.60;90.60;;;;;;5031560;28;20869;-69
2023/08/22 09:09:17;;;;;;;7.60;2.00;;;28.60;90.30;;;;;;5033464;28;21004;-69
2023/08/22 09:11:46;;;;;;;1.93;1.37;;;28.60;91.40;;;;;;5021769;28;20695;-69
2023/08/22 09:14:13;;;;;;;3.03;2.07;;;28.30;91.40;;;;;;5015724;28;20482;-69
2023/08/22 09:16:40;;;;;;;5.23;3.90;;;28.40;92.10;;;;;;5023389;28;21134;-69
2023/08/22 09:19:08;;;;;;;7.27;2.13;;;28.60;91.80;;;;;;5031466;28;20455;-70
2023/08/22 09:21:36;;;;;;;3.20;2.47;;;28.70;89.40;;;;;;5030428;28;20623;-74
2023/08/22 09:24:08;;;;;;;6.20;2.40;;;28.90;91.00;;;;;;5009190;28;20972;-71
2023/08/22 09:26:36;;;;;;;3.50;2.77;;;28.90;90.40;;;;;;5030049;28;20567;-70
2023/08/22 09:29:07;;;;;;;8.13;3.00;;;29.10;91.60;;;;;;5018400;28;20473;-68
2023/08/22 09:31:35;;;;;;;4.77;2.80;;;;;;;;;;5024925;28;20896;-69
2023/08/22 09:34:09;;;;;;;3.47;2.97;;;28.90;92.40;;;;;;5022640;28;20560;-68
2023/08/22 09:36:45;;;;;;;4.70;3.13;;;28.90;92.20;;;;;;5030512;28;20573;-69
2023/08/22 09:39:15;;;;;;;12.53;2.90;;;29.00;91.80;;;;;;5030713;28;20474;-72
2023/08/22 09:41:42;;;;;;;3.90;2.60;;;29.00;92.40;;;;;;5030425;28;20491;-71
2023/08/22 09:44:11;;;;;;;3.00;2.37;;;29.20;91.40;;;;;;5030764;28;20472;-71
2023/08/22 09:46:41;;;;;;;2.40;2.07;;;29.40;90.60;;;;;;5030862;28;20514;-69
2023/08/22 09:49:12;;;;;;;4.67;2.47;;;29.70;90.20;;;;;;5030807;28;21165;-71
2023/08/22 09:51:41;;;;;;;3.73;3.03;;;29.70;90.50;;;;;;5030506;28;20757;-70
2023/08/22 09:54:08;;;;;;;2.50;2.00;;;29.70;92.50;;;;;;5029756;28;20457;-68
2023/08/22 09:56:36;;;;;;;2.00;1.60;;;29.80;88.50;;;;;;5031789;28;20564;-68
2023/08/22 09:59:04;;;;;;;3.50;2.30;;;30.10;89.00;;;;;;5030087;28;20517;-70
2023/08/22 10:01:34;;;;;;;3.37;1.90;;;30.10;89.80;;;;;;5031635;28;20573;-69
2023/08/22 10:04:03;;;;;;;3.27;2.47;;;30.10;87.20;;;;;;5027120;28;20483;-70
2023/08/22 10:06:31;;;;;;;2.77;2.37;;;30.10;90.70;;;;;;5029483;28;20483;-70
2023/08/22 10:09:00;;;;;;;3.33;2.03;;;30.40;90.80;;;;;;5029821;28;20854;-69
2023/08/22 10:11:29;;;;;;;3.10;2.07;;;30.50;92.00;;;;;;5029191;28;20451;-70
2023/08/22 10:13:55;;;;;;;4.20;2.20;;;30.70;90.70;;;;;;5029518;28;20478;-68
2023/08/22 10:16:22;;;;;;;3.10;2.80;;;31.00;90.90;;;;;;5028820;28;20484;-69
2023/08/22 10:19:01;;;;;;;2.70;2.30;;;31.20;91.10;;;;;;5029730;28;20472;-67
2023/08/22 10:21:31;;;;;;;3.40;2.70;;;31.20;90.10;;;;;;5015912;28;21339;-68
2023/08/22 10:24:00;;;;;;;5.20;2.50;;;31.20;92.10;;;;;;5039153;28;21405;-68
2023/08/22 10:26:46;;;;;;;2.30;1.90;;;31.10;90.00;;;;;;5027820;28;20563;-70
2023/08/22 10:29:14;;;;;;;5.03;2.20;;;31.10;90.00;;;;;;5029837;28;20489;-69
2023/08/22 10:32:14;;;;;;;9.80;2.63;;;31.10;89.60;;;;;;5025983;28;20552;-68
2023/08/22 10:35:17;;;;;;;5.17;2.07;;;31.10;90.80;;;;;;5016464;28;25061;-71
2023/08/22 10:37:48;;;;;;;14.83;2.60;;;31.10;90.00;;;;;;5010831;28;20534;-69
2023/08/22 10:40:28;;;;;;;2.90;1.83;;;31.20;90.80;;;;;;5018303;28;20468;-70
2023/08/22 10:43:13;;;;;;;3.50;2.27;;;31.20;90.60;;;;;;5024474;28;21047;-69
2023/08/22 10:45:42;;;;;;;2.60;2.23;;;31.20;87.70;;;;;;5028317;28;20516;-71
2023/08/22 10:48:11;;;;;;;3.43;2.33;;;31.20;90.40;;;;;;5028841;28;20629;-70
2023/08/22 10:50:41;;;;;;;2.97;2.17;;;31.10;91.40;;;;;;5031526;28;20561;-70
2023/08/22 10:53:21;;;;;;;2.70;2.30;;;31.30;91.50;;;;;;5026456;28;20467;-69
2023/08/22 10:55:50;;;;;;;3.53;2.13;;;31.40;87.80;;;;;;5028894;28;20472;-70
2023/08/22 10:58:36;;;;;;;15.57;2.90;;;31.30;90.40;;;;;;5028859;28;20597;-69
2023/08/22 11:01:07;;;;;;;4.10;2.00;;;31.20;91.70;;;;;;5010861;28;20456;-68
2023/08/22 11:03:34;;;;;;;2.80;2.60;;;31.30;92.00;;;;;;5025345;28;20488;-72
2023/08/22 11:06:01;;;;;;;2.67;2.23;;;31.40;90.10;;;;;;5026561;28;20483;-71
2023/08/22 11:08:28;;;;;;;5.47;3.07;;;31.60;88.50;;;;;;5026890;28;20443;-72
2023/08/22 11:10:59;;;;;;;2.53;1.80;;;31.60;88.70;;;;;;5030099;28;20574;-71
2023/08/22 11:13:37;;;;;;;3.13;2.20;;;31.80;89.60;;;;;;5032104;28;20451;-70
2023/08/22 11:16:09;;;;;;;3.20;2.77;;;31.80;86.00;;;;;;5026813;28;20479;-73
2023/08/22 11:18:36;;;;;;;5.33;2.60;;;31.80;90.00;;;;;;5030065;28;20458;-71
2023/08/22 11:21:03;;;;;;;4.40;2.67;;;31.90;87.20;;;;;;5028963;28;20569;-71
2023/08/22 11:23:32;;;;;;;3.27;2.40;;;32.00;90.20;;;;;;5027910;28;20672;-72
2023/08/22 11:26:02;;;;;;;3.47;2.60;;;32.10;90.70;;;;;;5026358;28;20906;-68
2023/08/22 11:28:33;;;;;;;3.53;2.83;;;32.40;90.70;;;;;;5028207;28;20451;-69
2023/08/22 11:31:00;;;;;;;3.03;2.13;;;32.50;90.00;;;;;;5028217;28;20896;-71
2023/08/22 11:33:35;;;;;;;8.87;3.27;;;32.60;90.40;;;;;;5032611;28;20528;-69
2023/08/22 11:36:03;;;;;;;6.53;2.60;;;32.30;86.10;;;;;;5029209;28;20474;-71
2023/08/22 11:38:33;;;;;;;4.10;2.50;;;32.40;91.10;;;;;;5028758;28;20944;-71
2023/08/22 11:41:04;;;;;;;4.07;2.90;;;32.40;88.70;;;;;;5027393;28;20517;-70
2023/08/22 11:43:31;;;;;;;2.97;2.40;;;32.50;87.30;;;;;;5030623;28;20487;-72
2023/08/22 11:45:59;;;;;;;3.80;2.30;;;32.50;86.60;;;;;;5027152;28;20495;-72
2023/08/22 11:48:26;;;;;;;3.80;2.60;;;32.70;90.00;;;;;;5029712;28;20499;-69
2023/08/22 11:50:53;;;;;;;3.90;2.10;;;32.80;89.60;;;;;;5029983;28;20468;-71
2023/08/22 11:53:20;;;;;;;4.20;2.17;;;32.40;85.30;;;;;;5028582;28;20476;-73
2023/08/22 11:55:49;;;;;;;4.67;2.70;;;32.30;86.30;;;;;;5028572;28;20950;-70
2023/08/22 11:58:17;;;;;;;4.83;2.90;;;32.20;86.10;;;;;;5030960;28;20486;-73
2023/08/22 12:00:44;;;;;;;5.30;2.80;;;32.30;85.10;;;;;;5030366;28;20480;-73
2023/08/22 12:03:11;;;;;;;4.03;2.43;;;32.40;90.40;;;;;;5029723;28;20476;-72
2023/08/22 12:05:39;;;;;;;3.87;2.43;;;32.60;86.90;;;;;;5028856;28;20500;-73
2023/08/22 12:08:19;;;;;;;5.30;3.10;;;32.60;84.50;;;;;;5028668;28;20484;-71
2023/08/22 12:10:47;;;;;;;6.43;2.63;;;32.50;84.40;;;;;;5026447;28;20541;-70
2023/08/22 12:13:15;;;;;;;3.00;2.70;;;32.60;83.60;;;;;;5026406;28;20472;-69
2023/08/22 12:15:44;;;;;;;5.80;2.10;;;32.40;85.50;;;;;;5027409;28;21003;-71
2023/08/22 12:18:11;;;;;;;4.20;2.63;;;32.20;82.80;;;;;;5028720;28;20875;-69
2023/08/22 12:20:40;;;;;;;4.93;2.47;;;32.30;83.30;;;;;;5025803;28;21021;-72
2023/08/22 12:23:07;;;;;;;2.90;2.23;;;32.40;84.10;;;;;;5024427;28;20836;-70
2023/08/22 12:25:35;;;;;;;5.93;2.87;;;32.40;84.40;;;;;;5027011;28;20917;-72
2023/08/22 12:28:03;;;;;;;4.23;2.57;;;32.30;82.80;;;;;;5025590;28;20460;-74
2023/08/22 12:30:33;;;;;;;4.27;2.43;;;32.30;83.10;;;;;;5025723;28;20471;-72
2023/08/22 12:33:02;;;;;;;4.00;2.40;;;32.40;85.10;;;;;;5025718;28;20575;-69
2023/08/22 12:35:30;;;;;;;7.77;2.40;;;32.70;86.60;;;;;;5026191;28;20475;-70
2023/08/22 12:37:57;;;;;;;3.00;2.30;;;33.00;87.20;;;;;;5027963;28;20953;-72
2023/08/22 12:40:24;;;;;;;5.77;2.90;;;33.00;86.50;;;;;;5024799;28;20880;-71
2023/08/22 12:42:51;;;;;;;4.37;2.70;;;33.20;84.20;;;;;;5026955;28;20914;-73
2023/08/22 12:45:18;;;;;;;5.33;2.90;;;33.40;85.40;;;;;;5014117;28;20844;-68
2023/08/22 12:47:45;;;;;;;4.10;2.80;;;33.10;80.10;;;;;;5040298;28;20952;-71
2023/08/22 12:50:13;;;;;;;3.90;2.23;;;33.10;81.60;;;;;;5027326;28;21176;-71
2023/08/22 12:52:40;;;;;;;5.97;2.70;;;33.20;84.00;;;;;;5029429;28;21055;-72